createdAt,value
2019-06-10T00:00:31.268Z,17.68
2019-06-10T00:01:31.451Z,17.68
2019-06-10T00:02:30.992Z,17.67
2019-06-10T00:03:31.747Z,17.67
2019-06-10T00:04:30.898Z,17.67
2019-06-10T00:05:30.540Z,17.68
2019-06-10T00:06:31.078Z,17.70
2019-06-10T00:07:31.569Z,17.70
2019-06-10T00:08:30.831Z,17.71
2019-06-10T00:09:31.173Z,17.74
2019-06-10T00:10:31.185Z,17.74
2019-06-10T00:11:31.524Z,17.75
2019-06-10T00:12:31.483Z,17.76
2019-06-10T00:13:31.366Z,17.77
2019-06-10T00:14:31.479Z,17.78
2019-06-10T00:15:31.421Z,17.80
2019-06-10T00:16:30.895Z,17.80
2019-06-10T00:17:31.450Z,17.81
2019-06-10T00:18:38.805Z,17.82
2019-06-10T00:19:31.738Z,17.83
2019-06-10T00:20:30.621Z,17.83
2019-06-10T00:21:30.801Z,17.84
2019-06-10T00:22:31.555Z,17.84
2019-06-10T00:23:32.022Z,17.85
2019-06-10T00:24:31.496Z,17.86
2019-06-10T00:25:31.385Z,17.85
2019-06-10T00:26:30.776Z,17.87
2019-06-10T00:27:31.188Z,17.87
2019-06-10T00:28:31.173Z,17.88
2019-06-10T00:29:31.275Z,17.89
2019-06-10T00:30:31.343Z,17.87
2019-06-10T00:31:31.222Z,17.88
2019-06-10T00:32:32.042Z,17.88
2019-06-10T00:33:30.905Z,17.88
2019-06-10T00:34:34.885Z,17.87
2019-06-10T00:35:31.518Z,17.87
2019-06-10T00:36:30.885Z,17.85
2019-06-10T00:37:31.509Z,17.84
2019-06-10T00:38:31.920Z,17.84
2019-06-10T00:39:31.278Z,17.82
2019-06-10T00:40:31.699Z,17.82
2019-06-10T00:41:31.315Z,17.82
2019-06-10T00:42:31.427Z,17.79
2019-06-10T00:43:30.607Z,17.78
2019-06-10T00:44:31.124Z,17.76
2019-06-10T00:45:31.595Z,17.75
2019-06-10T00:46:31.631Z,17.75
2019-06-10T00:47:30.812Z,17.72
2019-06-10T00:48:32.363Z,17.71
2019-06-10T00:49:31.710Z,17.69
2019-06-10T00:50:30.847Z,17.69
2019-06-10T00:51:31.404Z,17.69
2019-06-10T00:52:30.942Z,17.67
2019-06-10T00:53:31.613Z,17.67
2019-06-10T00:54:31.165Z,17.66
2019-06-10T00:55:31.473Z,17.65
2019-06-10T00:56:30.829Z,17.64
2019-06-10T00:57:31.455Z,17.62
2019-06-10T00:58:31.989Z,17.62
2019-06-10T00:59:31.220Z,17.65
2019-06-10T01:00:31.821Z,17.65
2019-06-10T01:01:31.246Z,17.65
2019-06-10T01:02:31.890Z,17.65
2019-06-10T01:03:31.372Z,17.65
2019-06-10T01:04:31.881Z,17.64
2019-06-10T01:05:31.265Z,17.64
2019-06-10T01:06:31.852Z,17.62
2019-06-10T01:07:31.167Z,17.61
2019-06-10T01:08:31.630Z,17.59
2019-06-10T01:09:31.081Z,17.58
2019-06-10T01:10:31.647Z,17.57
2019-06-10T01:11:31.110Z,17.57
2019-06-10T01:12:31.632Z,17.55
2019-06-10T01:13:30.965Z,17.56
2019-06-10T01:14:31.869Z,17.56
2019-06-10T01:15:31.102Z,17.55
2019-06-10T01:16:31.652Z,17.56
2019-06-10T01:17:31.117Z,17.55
2019-06-10T01:18:35.675Z,17.54
2019-06-10T01:19:31.097Z,17.53
2019-06-10T01:20:29.704Z,17.51
2019-06-10T01:21:31.351Z,17.51
2019-06-10T01:22:31.572Z,17.49
2019-06-10T01:23:31.081Z,17.47
2019-06-10T01:24:31.469Z,17.47
2019-06-10T01:25:31.074Z,17.45
2019-06-10T01:26:30.990Z,17.43
2019-06-10T01:27:31.469Z,17.42
2019-06-10T01:28:31.387Z,17.40
2019-06-10T01:29:31.415Z,17.41
2019-06-10T01:30:31.245Z,17.41
2019-06-10T01:31:31.571Z,17.39
2019-06-10T01:32:31.172Z,17.39
2019-06-10T01:33:31.663Z,17.39
2019-06-10T01:34:31.091Z,17.38
2019-06-10T01:35:30.593Z,17.36
2019-06-10T01:36:31.348Z,17.36
2019-06-10T01:37:31.114Z,17.34
2019-06-10T01:38:31.507Z,17.32
2019-06-10T01:39:30.856Z,17.30
2019-06-10T01:40:31.384Z,17.29
2019-06-10T01:41:30.611Z,17.28
2019-06-10T01:42:30.643Z,17.27
2019-06-10T01:43:31.823Z,17.27
2019-06-10T01:44:31.055Z,17.27
2019-06-10T01:45:31.205Z,17.27
2019-06-10T01:46:31.483Z,17.27
2019-06-10T01:47:31.012Z,17.27
2019-06-10T01:48:43.781Z,17.28
2019-06-10T01:49:30.966Z,17.27
2019-06-10T01:50:32.160Z,17.28
2019-06-10T01:51:31.533Z,17.28
2019-06-10T01:52:31.534Z,17.27
2019-06-10T01:53:31.225Z,17.27
2019-06-10T01:54:31.505Z,17.27
2019-06-10T01:55:31.227Z,17.27
2019-06-10T01:56:31.330Z,17.23
2019-06-10T01:57:30.848Z,17.23
2019-06-10T01:58:31.497Z,17.21
2019-06-10T01:59:31.129Z,17.19
2019-06-10T02:00:31.091Z,17.17
2019-06-10T02:01:30.652Z,17.16
2019-06-10T02:02:34.529Z,17.14
2019-06-10T02:03:31.378Z,17.12
2019-06-10T02:04:31.779Z,17.11
2019-06-10T02:05:31.154Z,17.09
2019-06-10T02:06:31.480Z,17.09
2019-06-10T02:07:31.815Z,17.08
2019-06-10T02:08:31.361Z,17.07
2019-06-10T02:09:31.051Z,17.06
2019-06-10T02:10:31.079Z,17.07
2019-06-10T02:11:31.662Z,17.06
2019-06-10T02:12:31.480Z,17.05
2019-06-10T02:13:31.979Z,17.05
2019-06-10T02:14:31.563Z,17.06
2019-06-10T02:15:31.397Z,17.05
2019-06-10T02:16:29.026Z,17.04
2019-06-10T02:17:31.439Z,17.03
2019-06-10T02:18:28.986Z,17.02
2019-06-10T02:19:30.923Z,17.00
2019-06-10T02:20:31.628Z,17.01
2019-06-10T02:21:31.026Z,17.00
2019-06-10T02:22:31.657Z,17.00
2019-06-10T02:23:31.064Z,16.99
2019-06-10T02:24:31.311Z,16.99
2019-06-10T02:25:30.509Z,16.97
2019-06-10T02:26:30.854Z,16.96
2019-06-10T02:27:31.120Z,16.94
2019-06-10T02:28:31.345Z,16.92
2019-06-10T02:29:30.772Z,16.91
2019-06-10T02:30:41.482Z,16.90
2019-06-10T02:31:37.041Z,16.89
2019-06-10T02:32:36.936Z,16.87
2019-06-10T02:33:34.996Z,16.85
2019-06-10T02:34:33.084Z,16.83
2019-06-10T02:35:43.216Z,16.80
2019-06-10T02:36:35.488Z,16.76
2019-06-10T02:37:32.321Z,16.74
2019-06-10T02:38:35.526Z,16.72
2019-06-10T02:39:35.213Z,16.69
2019-06-10T02:40:36.148Z,16.67
2019-06-10T02:41:35.350Z,16.64
2019-06-10T02:42:35.817Z,16.63
2019-06-10T02:43:32.423Z,16.61
2019-06-10T02:44:33.164Z,16.60
2019-06-10T02:45:33.854Z,16.57
2019-06-10T02:46:31.346Z,16.55
2019-06-10T02:47:33.585Z,16.54
2019-06-10T02:48:30.528Z,16.52
2019-06-10T02:49:46.331Z,16.50
2019-06-10T02:50:33.526Z,16.49
2019-06-10T02:51:43.318Z,16.49
2019-06-10T02:52:32.889Z,16.49
2019-06-10T02:53:32.167Z,16.51
2019-06-10T02:54:35.799Z,16.51
2019-06-10T02:55:37.551Z,16.52
2019-06-10T02:56:35.041Z,16.52
2019-06-10T02:57:36.590Z,16.52
2019-06-10T02:58:34.228Z,16.52
2019-06-10T02:59:32.808Z,16.53
2019-06-10T03:00:39.590Z,16.53
2019-06-10T03:01:34.261Z,16.53
2019-06-10T03:02:35.444Z,16.53
2019-06-10T03:03:39.458Z,16.53
2019-06-10T03:04:32.544Z,16.52
2019-06-10T03:05:39.283Z,16.53
2019-06-10T03:06:33.385Z,16.52
2019-06-10T03:07:32.665Z,16.52
2019-06-10T03:08:32.710Z,16.52
2019-06-10T03:09:32.777Z,16.52
2019-06-10T03:10:32.832Z,16.55
2019-06-10T03:11:35.661Z,16.55
2019-06-10T03:12:29.478Z,16.57
2019-06-10T03:13:28.443Z,16.60
2019-06-10T03:14:28.532Z,16.61
2019-06-10T03:15:29.325Z,16.63
2019-06-10T03:16:28.508Z,16.64
2019-06-10T03:17:29.186Z,16.67
2019-06-10T03:18:28.403Z,16.69
2019-06-10T03:19:41.650Z,16.71
2019-06-10T03:20:29.504Z,16.73
2019-06-10T03:21:28.577Z,16.76
2019-06-10T03:22:29.531Z,16.78
2019-06-10T03:23:28.599Z,16.81
2019-06-10T03:24:28.585Z,16.83
2019-06-10T03:25:28.527Z,16.84
2019-06-10T03:26:28.303Z,16.85
2019-06-10T03:27:28.364Z,16.86
2019-06-10T03:28:28.319Z,16.87
2019-06-10T03:29:28.865Z,16.88
2019-06-10T03:30:44.225Z,16.89
2019-06-10T03:31:37.241Z,16.90
2019-06-10T03:32:35.351Z,16.92
2019-06-10T03:33:40.398Z,16.93
2019-06-10T03:34:35.992Z,16.94
2019-06-10T03:35:29.230Z,16.94
2019-06-10T03:36:28.412Z,16.93
2019-06-10T03:37:28.285Z,16.95
2019-06-10T03:38:28.339Z,16.93
2019-06-10T03:39:28.634Z,16.94
2019-06-10T03:40:29.241Z,16.95
2019-06-10T03:41:28.242Z,16.96
2019-06-10T03:42:28.299Z,16.96
2019-06-10T03:43:28.133Z,16.96
2019-06-10T03:44:28.418Z,16.96
2019-06-10T03:45:28.558Z,16.94
2019-06-10T03:46:29.128Z,16.93
2019-06-10T03:47:28.818Z,16.94
2019-06-10T03:48:28.450Z,16.95
2019-06-10T03:49:28.862Z,16.95
2019-06-10T03:50:28.749Z,16.96
2019-06-10T03:51:28.621Z,16.97
2019-06-10T03:52:28.561Z,16.97
2019-06-10T03:53:28.545Z,16.99
2019-06-10T03:54:29.467Z,16.98
2019-06-10T03:55:29.091Z,16.99
2019-06-10T03:56:28.249Z,16.99
2019-06-10T03:57:28.706Z,17.00
2019-06-10T03:58:29.186Z,17.00
2019-06-10T03:59:29.550Z,17.01
2019-06-10T04:00:28.975Z,17.03
2019-06-10T04:01:29.771Z,17.04
2019-06-10T04:02:28.544Z,17.06
2019-06-10T04:03:29.305Z,17.08
2019-06-10T04:04:28.347Z,17.09
2019-06-10T04:05:28.843Z,17.10
2019-06-10T04:06:29.542Z,17.12
2019-06-10T04:07:30.939Z,17.16
2019-06-10T04:08:28.842Z,17.19
2019-06-10T04:09:28.871Z,17.21
2019-06-10T04:10:29.544Z,17.26
2019-06-10T04:11:29.332Z,17.29
2019-06-10T04:12:29.051Z,17.32
2019-06-10T04:13:28.455Z,17.34
2019-06-10T04:14:28.499Z,17.34
2019-06-10T04:15:29.447Z,17.36
2019-06-10T04:16:28.344Z,17.35
2019-06-10T04:17:28.693Z,17.36
2019-06-10T04:18:29.375Z,17.35
2019-06-10T04:19:28.798Z,17.36
2019-06-10T04:20:29.369Z,17.35
2019-06-10T04:21:28.407Z,17.35
2019-06-10T04:22:28.388Z,17.33
2019-06-10T04:23:28.541Z,17.32
2019-06-10T04:24:28.657Z,17.30
2019-06-10T04:25:29.409Z,17.28
2019-06-10T04:26:28.488Z,17.28
2019-06-10T04:27:28.450Z,17.27
2019-06-10T04:28:28.742Z,17.27
2019-06-10T04:29:28.930Z,17.27
2019-06-10T04:30:28.175Z,17.27
2019-06-10T04:31:28.036Z,17.26
2019-06-10T04:32:29.044Z,17.26
2019-06-10T04:33:28.773Z,17.25
2019-06-10T04:34:30.200Z,17.26
2019-06-10T04:35:27.960Z,17.29
2019-06-10T04:36:28.162Z,17.32
2019-06-10T04:37:28.120Z,17.36
2019-06-10T04:38:27.889Z,17.42
2019-06-10T04:39:28.023Z,17.49
2019-06-10T04:40:28.105Z,17.55
2019-06-10T04:41:29.131Z,17.62
2019-06-10T04:42:28.797Z,17.72
2019-06-10T04:43:28.850Z,17.79
2019-06-10T04:44:28.141Z,17.87
2019-06-10T04:45:28.012Z,17.95
2019-06-10T04:46:28.354Z,18.03
2019-06-10T04:47:28.348Z,18.12
2019-06-10T04:48:29.305Z,18.20
2019-06-10T04:49:28.629Z,18.28
2019-06-10T04:50:37.231Z,18.36
2019-06-10T04:51:29.717Z,18.46
2019-06-10T04:52:28.391Z,18.55
2019-06-10T04:53:28.261Z,18.65
2019-06-10T04:54:28.643Z,18.74
2019-06-10T04:55:27.840Z,18.83
2019-06-10T04:56:28.738Z,18.93
2019-06-10T04:57:28.385Z,19.01
2019-06-10T04:58:28.775Z,19.07
2019-06-10T04:59:28.816Z,19.15
2019-06-10T05:00:28.798Z,19.25
2019-06-10T05:01:28.615Z,19.36
2019-06-10T05:02:28.485Z,19.49
2019-06-10T05:03:28.049Z,19.63
2019-06-10T05:04:28.749Z,19.79
2019-06-10T05:05:28.850Z,19.96
2019-06-10T05:06:28.356Z,20.09
2019-06-10T05:07:32.585Z,20.20
2019-06-10T05:08:29.634Z,20.29
2019-06-10T05:09:28.784Z,20.35
2019-06-10T05:10:28.291Z,20.40
2019-06-10T05:11:28.586Z,20.42
2019-06-10T05:12:27.998Z,20.42
2019-06-10T05:13:28.385Z,20.41
2019-06-10T05:14:28.754Z,20.39
2019-06-10T05:15:28.466Z,20.37
2019-06-10T05:16:30.523Z,20.35
2019-06-10T05:17:29.701Z,20.33
2019-06-10T05:18:27.627Z,20.31
2019-06-10T05:19:28.034Z,20.30
2019-06-10T05:20:44.498Z,20.29
2019-06-10T05:21:29.431Z,20.30
2019-06-10T05:22:28.175Z,20.32
2019-06-10T05:23:27.925Z,20.33
2019-06-10T05:24:29.582Z,20.37
2019-06-10T05:25:28.384Z,20.41
2019-06-10T05:26:28.530Z,20.46
2019-06-10T05:27:28.283Z,20.50
2019-06-10T05:28:27.463Z,20.57
2019-06-10T05:29:28.359Z,20.63
2019-06-10T05:30:28.178Z,20.73
2019-06-10T05:31:28.926Z,20.80
2019-06-10T05:32:27.845Z,20.87
2019-06-10T05:33:27.151Z,20.94
2019-06-10T05:34:28.377Z,21.01
2019-06-10T05:35:28.104Z,21.09
2019-06-10T05:36:28.686Z,21.16
2019-06-10T05:37:27.937Z,21.22
2019-06-10T05:38:29.131Z,21.26
2019-06-10T05:39:27.590Z,21.30
2019-06-10T05:40:27.651Z,21.35
2019-06-10T05:41:27.911Z,21.41
2019-06-10T05:42:28.180Z,21.48
2019-06-10T05:43:27.866Z,21.58
2019-06-10T05:44:28.474Z,21.69
2019-06-10T05:45:27.977Z,21.81
2019-06-10T05:46:27.346Z,21.93
2019-06-10T05:47:29.220Z,22.04
2019-06-10T05:48:26.909Z,22.12
2019-06-10T05:49:27.786Z,22.19
2019-06-10T05:50:28.495Z,22.25
2019-06-10T05:51:27.883Z,22.48
2019-06-10T05:52:27.642Z,22.62
2019-06-10T05:53:28.036Z,22.89
2019-06-10T05:54:27.903Z,23.04
2019-06-10T05:55:27.065Z,23.01
2019-06-10T05:56:27.201Z,23.04
2019-06-10T05:57:29.382Z,23.11
2019-06-10T05:58:27.792Z,23.15
2019-06-10T05:59:27.349Z,23.23
2019-06-10T06:00:27.549Z,23.26
2019-06-10T06:01:27.552Z,23.30
2019-06-10T06:02:27.722Z,23.33
2019-06-10T06:03:27.768Z,23.37
2019-06-10T06:04:26.535Z,23.38
2019-06-10T06:05:26.526Z,23.38
2019-06-10T06:06:27.055Z,23.39
2019-06-10T06:07:27.053Z,23.41
2019-06-10T06:08:27.099Z,23.50
2019-06-10T06:09:27.158Z,23.52
2019-06-10T06:10:27.222Z,23.57
2019-06-10T06:11:27.349Z,23.67
2019-06-10T06:12:27.546Z,23.79
2019-06-10T06:13:27.438Z,23.89
2019-06-10T06:14:27.509Z,23.97
2019-06-10T06:15:27.594Z,24.02
2019-06-10T06:16:27.629Z,24.04
2019-06-10T06:17:27.870Z,23.99
2019-06-10T06:18:26.482Z,23.96
2019-06-10T06:19:26.379Z,23.94
2019-06-10T06:20:27.048Z,23.97
2019-06-10T06:21:31.463Z,24.02
2019-06-10T06:22:27.471Z,24.10
2019-06-10T06:23:26.886Z,24.15
2019-06-10T06:24:27.465Z,24.20
2019-06-10T06:25:27.629Z,24.26
2019-06-10T06:26:26.836Z,24.34
2019-06-10T06:27:26.739Z,24.41
2019-06-10T06:28:26.293Z,24.47
2019-06-10T06:29:26.909Z,24.54
2019-06-10T06:30:26.260Z,24.60
2019-06-10T06:31:26.244Z,24.68
2019-06-10T06:32:26.341Z,24.78
2019-06-10T06:33:27.317Z,24.93
2019-06-10T06:34:26.868Z,25.10
2019-06-10T06:35:26.410Z,25.33
2019-06-10T06:36:26.612Z,25.55
2019-06-10T06:37:26.875Z,25.77
2019-06-10T06:38:26.886Z,25.97
2019-06-10T06:39:27.037Z,26.08
2019-06-10T06:40:27.181Z,26.10
2019-06-10T06:41:27.352Z,26.01
2019-06-10T06:42:27.192Z,25.92
2019-06-10T06:43:28.954Z,25.87
2019-06-10T06:44:26.098Z,25.86
2019-06-10T06:45:26.108Z,25.84
2019-06-10T06:46:26.090Z,25.78
2019-06-10T06:47:26.077Z,25.75
2019-06-10T06:48:26.078Z,25.74
2019-06-10T06:49:26.138Z,25.73
2019-06-10T06:50:26.044Z,25.72
2019-06-10T06:51:38.993Z,25.70
2019-06-10T06:52:56.732Z,25.70
2019-06-10T06:53:33.302Z,25.70
2019-06-10T06:54:27.051Z,25.75
2019-06-10T06:55:25.996Z,25.80
2019-06-10T06:56:25.946Z,25.81
2019-06-10T06:57:25.958Z,25.84
2019-06-10T06:58:27.016Z,25.91
2019-06-10T06:59:25.976Z,26.01
2019-06-10T07:00:42.994Z,26.15
2019-06-10T07:01:27.664Z,26.28
2019-06-10T07:02:25.895Z,26.41
2019-06-10T07:03:25.889Z,26.50
2019-06-10T07:04:25.862Z,26.56
2019-06-10T07:05:25.857Z,26.61
2019-06-10T07:06:25.887Z,26.72
2019-06-10T07:07:25.929Z,26.89
2019-06-10T07:08:25.830Z,27.06
2019-06-10T07:09:25.909Z,27.29
2019-06-10T07:10:25.845Z,27.54
2019-06-10T07:11:25.824Z,27.81
2019-06-10T07:12:25.773Z,28.07
2019-06-10T07:13:25.855Z,28.34
2019-06-10T07:14:25.735Z,28.71
2019-06-10T07:15:25.788Z,29.17
2019-06-10T07:16:25.751Z,29.58
2019-06-10T07:17:25.963Z,29.76
2019-06-10T07:18:25.722Z,29.89
2019-06-10T07:19:25.733Z,29.97
2019-06-10T07:20:25.744Z,30.02
2019-06-10T07:21:25.735Z,30.01
2019-06-10T07:22:26.845Z,29.98
2019-06-10T07:23:25.655Z,29.98
2019-06-10T07:24:25.670Z,30.08
2019-06-10T07:25:25.664Z,30.27
2019-06-10T07:26:25.670Z,30.46
2019-06-10T07:27:25.648Z,30.62
2019-06-10T07:28:25.667Z,30.71
2019-06-10T07:29:25.620Z,30.77
2019-06-10T07:30:25.642Z,30.82
2019-06-10T07:31:27.990Z,30.84
2019-06-10T07:32:25.552Z,30.88
2019-06-10T07:33:25.569Z,30.89
2019-06-10T07:34:25.565Z,30.89
2019-06-10T07:35:25.598Z,30.85
2019-06-10T07:36:25.516Z,30.87
2019-06-10T07:37:25.520Z,30.85
2019-06-10T07:38:26.342Z,30.76
2019-06-10T07:39:25.536Z,30.67
2019-06-10T07:40:25.500Z,30.62
2019-06-10T07:41:25.471Z,30.60
2019-06-10T07:42:25.440Z,30.57
2019-06-10T07:43:25.556Z,30.54
2019-06-10T07:44:25.443Z,30.46
2019-06-10T07:45:25.425Z,30.42
2019-06-10T07:46:25.401Z,30.52
2019-06-10T07:47:25.439Z,30.72
2019-06-10T07:48:25.422Z,30.97
2019-06-10T07:49:25.509Z,31.21
2019-06-10T07:50:25.345Z,31.40
2019-06-10T07:51:25.395Z,31.45
2019-06-10T07:52:25.348Z,31.26
2019-06-10T07:53:25.418Z,31.33
2019-06-10T07:54:25.354Z,31.43
2019-06-10T07:55:25.326Z,31.54
2019-06-10T07:56:25.330Z,31.70
2019-06-10T07:57:25.270Z,31.91
2019-06-10T07:58:25.269Z,32.17
2019-06-10T07:59:25.253Z,32.35
2019-06-10T08:00:25.313Z,32.40
2019-06-10T08:01:25.254Z,32.42
2019-06-10T08:02:25.225Z,32.35
2019-06-10T08:03:25.264Z,32.31
2019-06-10T08:04:25.241Z,32.20
2019-06-10T08:05:25.207Z,32.01
2019-06-10T08:06:25.379Z,31.76
2019-06-10T08:07:25.179Z,31.53
2019-06-10T08:08:25.197Z,31.35
2019-06-10T08:09:25.200Z,31.22
2019-06-10T08:10:25.165Z,31.15
2019-06-10T08:11:25.200Z,31.15
2019-06-10T08:12:25.208Z,31.15
2019-06-10T08:13:25.185Z,31.20
2019-06-10T08:14:25.128Z,31.23
2019-06-10T08:15:25.099Z,31.27
2019-06-10T08:16:25.112Z,31.39
2019-06-10T08:17:25.073Z,31.55
2019-06-10T08:18:26.121Z,31.68
2019-06-10T08:19:34.314Z,31.83
2019-06-10T08:20:26.057Z,31.93
2019-06-10T08:21:25.151Z,32.05
2019-06-10T08:22:33.289Z,32.22
2019-06-10T08:23:26.025Z,32.29
2019-06-10T08:24:24.984Z,32.43
2019-06-10T08:25:24.999Z,32.71
2019-06-10T08:26:25.018Z,33.20
2019-06-10T08:27:25.003Z,33.92
2019-06-10T08:28:25.032Z,34.79
2019-06-10T08:29:24.959Z,35.93
2019-06-10T08:30:27.634Z,37.32
2019-06-10T08:31:24.942Z,38.82
2019-06-10T08:32:25.174Z,40.21
2019-06-10T08:33:27.166Z,41.66
2019-06-10T08:34:24.993Z,42.33
2019-06-10T08:35:38.334Z,42.77
2019-06-10T08:36:25.922Z,42.98
2019-06-10T08:37:24.874Z,43.29
2019-06-10T08:38:24.864Z,44.41
2019-06-10T08:39:24.888Z,44.82
2019-06-10T08:40:24.802Z,44.83
2019-06-10T08:41:24.872Z,45.32
2019-06-10T08:42:24.882Z,45.88
2019-06-10T08:43:24.771Z,45.23
2019-06-10T08:44:24.787Z,45.32
2019-06-10T08:45:24.801Z,45.79
2019-06-10T08:46:24.851Z,46.49
2019-06-10T08:47:24.794Z,47.68
2019-06-10T08:48:24.742Z,48.83
2019-06-10T08:49:24.798Z,49.32
2019-06-10T08:50:24.936Z,48.84
2019-06-10T08:51:24.795Z,48.13
2019-06-10T08:52:25.753Z,47.91
2019-06-10T08:53:24.852Z,46.72
2019-06-10T08:54:24.722Z,45.49
2019-06-10T08:55:24.694Z,45.11
2019-06-10T08:56:24.645Z,45.33
2019-06-10T08:57:24.653Z,45.10
2019-06-10T08:58:24.756Z,43.51
2019-06-10T08:59:24.676Z,42.12
2019-06-10T09:00:25.650Z,40.99
2019-06-10T09:01:24.647Z,40.78
2019-06-10T09:02:25.499Z,40.60
2019-06-10T09:03:24.607Z,42.13
2019-06-10T09:04:24.581Z,45.08
2019-06-10T09:05:24.558Z,47.33
2019-06-10T09:06:24.658Z,47.76
2019-06-10T09:07:24.573Z,47.39
2019-06-10T09:08:24.557Z,44.98
2019-06-10T09:09:24.690Z,42.64
2019-06-10T09:10:24.749Z,43.52
2019-06-10T09:11:24.623Z,44.32
2019-06-10T09:12:32.835Z,45.11
2019-06-10T09:13:26.480Z,47.26
2019-06-10T09:14:24.516Z,46.87
2019-06-10T09:15:24.465Z,46.70
2019-06-10T09:16:24.464Z,47.80
2019-06-10T09:17:24.508Z,49.75
2019-06-10T09:18:24.397Z,50.56
2019-06-10T09:19:24.519Z,51.34
2019-06-10T09:20:24.465Z,51.66
2019-06-10T09:21:24.425Z,51.44
2019-06-10T09:22:24.447Z,51.09
2019-06-10T09:23:25.677Z,51.28
2019-06-10T09:24:24.406Z,51.38
2019-06-10T09:25:24.380Z,51.60
2019-06-10T09:26:24.326Z,51.33
2019-06-10T09:27:26.854Z,52.19
2019-06-10T09:28:24.375Z,52.42
2019-06-10T09:29:24.373Z,53.43
2019-06-10T09:30:24.324Z,53.31
2019-06-10T09:31:24.330Z,52.84
2019-06-10T09:32:24.280Z,52.90
2019-06-10T09:33:24.290Z,53.04
2019-06-10T09:34:24.278Z,53.33
2019-06-10T09:35:24.295Z,53.97
2019-06-10T09:36:24.313Z,53.69
2019-06-10T09:37:24.241Z,52.90
2019-06-10T09:38:24.505Z,52.14
2019-06-10T09:39:24.293Z,51.60
2019-06-10T09:40:24.217Z,51.02
2019-06-10T09:41:36.408Z,49.43
2019-06-10T09:42:25.177Z,47.73
2019-06-10T09:43:24.175Z,46.43
2019-06-10T09:44:24.166Z,44.88
2019-06-10T09:45:24.172Z,43.60
2019-06-10T09:46:24.130Z,42.70
2019-06-10T09:47:24.180Z,42.00
2019-06-10T09:48:24.115Z,41.74
2019-06-10T09:49:24.144Z,42.22
2019-06-10T09:50:24.180Z,43.25
2019-06-10T09:51:24.188Z,44.26
2019-06-10T09:52:24.168Z,46.99
2019-06-10T09:53:32.799Z,49.31
2019-06-10T09:54:25.074Z,50.74
2019-06-10T09:55:24.138Z,51.19
2019-06-10T09:56:24.091Z,51.51
2019-06-10T09:57:24.221Z,51.49
2019-06-10T09:58:24.128Z,51.15
2019-06-10T09:59:24.008Z,50.71
2019-06-10T10:00:24.016Z,50.19
2019-06-10T10:01:24.719Z,49.29
2019-06-10T10:02:24.460Z,50.18
2019-06-10T10:03:24.057Z,49.84
2019-06-10T10:04:23.978Z,49.53
2019-06-10T10:05:24.016Z,50.84
2019-06-10T10:06:23.964Z,51.99
2019-06-10T10:07:24.072Z,52.16
2019-06-10T10:08:23.986Z,52.13
2019-06-10T10:09:23.930Z,52.03
2019-06-10T10:10:24.144Z,51.38
2019-06-10T10:11:27.575Z,51.26
2019-06-10T10:12:23.884Z,50.95
2019-06-10T10:13:24.022Z,49.84
2019-06-10T10:14:23.906Z,51.40
2019-06-10T10:15:30.574Z,51.86
2019-06-10T10:16:24.884Z,51.18
2019-06-10T10:17:24.028Z,53.62
2019-06-10T10:18:23.874Z,54.73
2019-06-10T10:19:23.833Z,54.21
2019-06-10T10:20:23.928Z,54.21
2019-06-10T10:21:23.833Z,54.19
2019-06-10T10:22:23.956Z,54.78
2019-06-10T10:23:23.857Z,53.92
2019-06-10T10:24:24.075Z,52.09
2019-06-10T10:25:23.850Z,50.35
2019-06-10T10:26:23.972Z,49.08
2019-06-10T10:27:24.875Z,48.05
2019-06-10T10:28:26.334Z,47.20
2019-06-10T10:29:23.819Z,46.54
2019-06-10T10:30:24.544Z,46.00
2019-06-10T10:31:24.129Z,45.54
2019-06-10T10:32:23.872Z,45.15
2019-06-10T10:33:28.955Z,44.83
2019-06-10T10:34:24.778Z,44.46
2019-06-10T10:35:24.275Z,44.11
2019-06-10T10:36:23.646Z,43.77
2019-06-10T10:37:23.954Z,43.40
2019-06-10T10:38:23.639Z,42.95
2019-06-10T10:39:24.594Z,42.53
2019-06-10T10:40:24.423Z,42.20
2019-06-10T10:41:24.220Z,41.78
2019-06-10T10:42:23.844Z,41.56
2019-06-10T10:43:32.686Z,41.63
2019-06-10T10:44:25.549Z,41.81
2019-06-10T10:45:24.598Z,41.87
2019-06-10T10:46:24.274Z,41.64
2019-06-10T10:47:27.015Z,41.51
2019-06-10T10:48:23.629Z,41.41
2019-06-10T10:49:23.595Z,41.20
2019-06-10T10:50:24.683Z,40.87
2019-06-10T10:51:25.168Z,40.55
2019-06-10T10:52:23.844Z,40.24
2019-06-10T10:53:23.885Z,40.02
2019-06-10T10:54:32.869Z,39.83
2019-06-10T10:55:24.410Z,39.84
2019-06-10T10:56:23.418Z,40.13
2019-06-10T10:57:23.414Z,40.26
2019-06-10T10:58:23.433Z,40.47
2019-06-10T10:59:23.377Z,45.93
2019-06-10T11:00:23.382Z,48.82
2019-06-10T11:01:23.801Z,52.30
2019-06-10T11:02:23.555Z,55.06
2019-06-10T11:03:23.759Z,52.28
2019-06-10T11:04:23.663Z,51.16
2019-06-10T11:05:24.455Z,54.20
2019-06-10T11:06:23.532Z,55.41
2019-06-10T11:07:23.480Z,56.69
2019-06-10T11:08:23.482Z,57.92
2019-06-10T11:09:23.838Z,57.78
2019-06-10T11:10:23.731Z,52.92
2019-06-10T11:11:23.661Z,49.66
2019-06-10T11:12:23.517Z,48.43
2019-06-10T11:13:23.565Z,52.95
2019-06-10T11:14:23.317Z,56.27
2019-06-10T11:15:23.262Z,58.07
2019-06-10T11:16:24.020Z,59.73
2019-06-10T11:17:23.571Z,61.21
2019-06-10T11:18:23.296Z,62.27
2019-06-10T11:19:33.616Z,63.16
2019-06-10T11:20:23.300Z,63.51
2019-06-10T11:21:23.449Z,57.25
2019-06-10T11:22:23.943Z,53.48
2019-06-10T11:23:23.289Z,57.56
2019-06-10T11:24:33.512Z,60.31
2019-06-10T11:25:24.385Z,62.26
2019-06-10T11:26:26.671Z,63.72
2019-06-10T11:27:24.020Z,64.89
2019-06-10T11:28:23.577Z,65.52
2019-06-10T11:29:23.244Z,65.86
2019-06-10T11:30:23.618Z,61.27
2019-06-10T11:31:23.417Z,56.30
2019-06-10T11:32:23.167Z,52.94
2019-06-10T11:33:23.275Z,50.85
2019-06-10T11:34:23.154Z,53.58
2019-06-10T11:35:23.136Z,57.74
2019-06-10T11:36:23.856Z,54.19
2019-06-10T11:37:29.403Z,51.23
2019-06-10T11:38:23.528Z,49.24
2019-06-10T11:39:23.347Z,48.40
2019-06-10T11:40:24.751Z,50.15
2019-06-10T11:41:23.632Z,50.31
2019-06-10T11:42:23.495Z,48.96
2019-06-10T11:43:23.020Z,51.17
2019-06-10T11:44:23.024Z,53.48
2019-06-10T11:45:22.942Z,54.49
2019-06-10T11:46:22.926Z,54.66
2019-06-10T11:47:23.071Z,54.62
2019-06-10T11:48:23.815Z,52.39
2019-06-10T11:49:23.797Z,50.01
2019-06-10T11:50:23.346Z,48.98
2019-06-10T11:51:23.414Z,47.23
2019-06-10T11:52:23.073Z,46.05
2019-06-10T11:53:23.050Z,45.29
2019-06-10T11:54:24.190Z,46.76
2019-06-10T11:55:23.794Z,48.94
2019-06-10T11:56:22.868Z,50.64
2019-06-10T11:57:22.975Z,52.06
2019-06-10T11:58:23.781Z,52.73
2019-06-10T11:59:23.150Z,52.81
2019-06-10T12:00:24.107Z,52.17
2019-06-10T12:01:24.563Z,51.27
2019-06-10T12:02:27.362Z,49.72
2019-06-10T12:03:23.161Z,47.82
2019-06-10T12:04:24.977Z,46.39
2019-06-10T12:05:23.473Z,45.22
2019-06-10T12:06:23.010Z,44.26
2019-06-10T12:07:24.359Z,43.42
2019-06-10T12:08:23.627Z,42.72
2019-06-10T12:09:23.031Z,42.12
2019-06-10T12:10:27.065Z,41.52
2019-06-10T12:11:25.339Z,40.96
2019-06-10T12:12:22.938Z,40.40
2019-06-10T12:13:22.761Z,39.81
2019-06-10T12:14:26.821Z,39.25
2019-06-10T12:15:22.921Z,38.85
2019-06-10T12:17:14.704Z,38.55
2019-06-10T12:17:40.889Z,38.36
2019-06-10T12:18:23.844Z,38.27
2019-06-10T12:19:23.520Z,38.30
2019-06-10T12:20:22.949Z,38.41
2019-06-10T12:21:23.517Z,38.48
2019-06-10T12:22:22.796Z,38.47
2019-06-10T12:23:22.821Z,38.47
2019-06-10T12:24:24.427Z,38.44
2019-06-10T12:25:32.460Z,38.31
2019-06-10T12:26:23.679Z,38.12
2019-06-10T12:27:24.371Z,37.97
2019-06-10T12:28:25.048Z,37.76
2019-06-10T12:29:22.664Z,37.44
2019-06-10T12:30:22.550Z,37.02
2019-06-10T12:31:23.287Z,36.58
2019-06-10T12:32:22.747Z,36.29
2019-06-10T12:33:25.416Z,36.12
2019-06-10T12:34:22.819Z,36.04
2019-06-10T12:35:22.991Z,35.98
2019-06-10T12:36:23.808Z,36.01
2019-06-10T12:37:23.838Z,36.08
2019-06-10T12:38:22.903Z,36.31
2019-06-10T12:39:23.016Z,36.86
2019-06-10T12:40:22.391Z,37.76
2019-06-10T12:41:23.266Z,38.08
2019-06-10T12:42:22.605Z,38.81
2019-06-10T12:43:23.175Z,39.56
2019-06-10T12:44:22.837Z,40.25
2019-06-10T12:45:23.322Z,40.59
2019-06-10T12:46:23.162Z,40.79
2019-06-10T12:47:22.928Z,41.04
2019-06-10T12:48:22.415Z,41.22
2019-06-10T12:49:22.254Z,41.34
2019-06-10T12:50:22.256Z,41.36
2019-06-10T12:51:22.823Z,41.34
2019-06-10T12:52:22.947Z,41.60